createdAt,value
2019-02-28T00:00:42.524Z,7.31
2019-02-28T00:01:47.173Z,7.31
2019-02-28T00:02:40.891Z,7.29
2019-02-28T00:03:40.640Z,7.27
2019-02-28T00:04:41.095Z,7.3
2019-02-28T00:05:41.190Z,7.31
2019-02-28T00:06:45.245Z,7.26
2019-02-28T00:07:40.699Z,7.26
2019-02-28T00:08:41.248Z,7.23
2019-02-28T00:09:40.900Z,7.22
2019-02-28T00:10:42.513Z,7.22
2019-02-28T00:11:40.795Z,7.18
2019-02-28T00:12:41.127Z,7.2
2019-02-28T00:13:40.818Z,7.22
2019-02-28T00:14:40.780Z,7.2
2019-02-28T00:15:41.064Z,7.2
2019-02-28T00:16:40.780Z,7.19
2019-02-28T00:17:43.859Z,7.22
2019-02-28T00:18:40.883Z,7.18
2019-02-28T00:19:41.495Z,7.23
2019-02-28T00:20:40.669Z,7.19
2019-02-28T00:21:41.451Z,7.19
2019-02-28T00:22:40.641Z,7.19
2019-02-28T00:23:41.102Z,7.19
2019-02-28T00:24:40.893Z,7.19
2019-02-28T00:25:42.479Z,7.15
2019-02-28T00:26:48.005Z,7.13
2019-02-28T00:27:41.026Z,7.09
2019-02-28T00:28:41.134Z,7.11
2019-02-28T00:29:40.733Z,7.09
2019-02-28T00:30:41.728Z,7.08
2019-02-28T00:31:40.721Z,7.05
2019-02-28T00:32:41.091Z,7.05
2019-02-28T00:33:40.689Z,7.05
2019-02-28T00:34:40.621Z,7.05
2019-02-28T00:35:41.222Z,7.03
2019-02-28T00:36:42.470Z,7.02
2019-02-28T00:37:40.592Z,6.96
2019-02-28T00:38:40.650Z,6.98
2019-02-28T00:39:40.682Z,6.95
2019-02-28T00:40:41.249Z,6.94
2019-02-28T00:41:44.804Z,6.88
2019-02-28T00:42:40.918Z,6.87
2019-02-28T00:43:40.615Z,6.87
2019-02-28T00:44:40.611Z,6.81
2019-02-28T00:45:41.037Z,6.81
2019-02-28T00:46:45.491Z,6.84
2019-02-28T00:47:40.785Z,6.67
2019-02-28T00:48:40.603Z,6.65
2019-02-28T00:49:40.665Z,6.67
2019-02-28T00:50:40.613Z,6.7
2019-02-28T00:51:40.721Z,6.71
2019-02-28T00:52:42.450Z,6.74
2019-02-28T00:53:40.761Z,6.75
2019-02-28T00:54:44.610Z,6.74
2019-02-28T00:55:40.642Z,6.7
2019-02-28T00:56:41.173Z,6.71
2019-02-28T00:57:42.150Z,6.67
2019-02-28T00:58:41.131Z,6.65
2019-02-28T00:59:40.633Z,6.67
2019-02-28T01:00:41.049Z,6.73
2019-02-28T01:01:46.852Z,6.78
2019-02-28T01:02:41.057Z,6.8
2019-02-28T01:03:40.701Z,6.78
2019-02-28T01:04:40.761Z,6.81
2019-02-28T01:05:40.699Z,6.8
2019-02-28T01:06:42.653Z,6.78
2019-02-28T01:07:40.611Z,6.77
2019-02-28T01:08:40.543Z,6.83
2019-02-28T01:09:40.574Z,6.81
2019-02-28T01:10:40.834Z,6.84
2019-02-28T01:11:40.388Z,6.88
2019-02-28T01:12:40.624Z,6.94
2019-02-28T01:13:40.814Z,6.98
2019-02-28T01:14:40.920Z,7.02
2019-02-28T01:15:45.856Z,7.03
2019-02-28T01:16:41.613Z,7.02
2019-02-28T01:17:40.657Z,7.05
2019-02-28T01:18:42.403Z,7.03
2019-02-28T01:19:42.456Z,7.05
2019-02-28T01:20:40.652Z,7.05
2019-02-28T01:21:41.340Z,7.08
2019-02-28T01:22:41.097Z,7.06
2019-02-28T01:23:40.552Z,7.06
2019-02-28T01:24:41.370Z,7.09
2019-02-28T01:25:41.059Z,7.08
2019-02-28T01:26:47.461Z,7.09
2019-02-28T01:27:40.808Z,7.11
2019-02-28T01:28:41.509Z,7.11
2019-02-28T01:29:42.407Z,7.11
2019-02-28T01:30:41.294Z,7.09
2019-02-28T01:31:43.537Z,7.12
2019-02-28T01:32:40.553Z,7.09
2019-02-28T01:33:40.533Z,7.09
2019-02-28T01:34:40.586Z,7.09
2019-02-28T01:35:41.652Z,7.08
2019-02-28T01:36:40.658Z,7.08
2019-02-28T01:37:40.975Z,7.05
2019-02-28T01:38:42.376Z,7.08
2019-02-28T01:39:40.679Z,7.03
2019-02-28T01:40:41.473Z,7.03
2019-02-28T01:41:45.932Z,7.03
2019-02-28T01:42:40.685Z,7.03
2019-02-28T01:43:40.754Z,6.99
2019-02-28T01:44:40.635Z,6.98
2019-02-28T01:45:44.469Z,6.98
2019-02-28T01:46:40.826Z,7.01
2019-02-28T01:47:40.566Z,6.98
2019-02-28T01:48:42.366Z,7.01
2019-02-28T01:49:40.879Z,7.01
2019-02-28T01:50:40.870Z,6.98
2019-02-28T01:51:41.143Z,7.01
2019-02-28T01:52:46.256Z,6.99
2019-02-28T01:53:42.228Z,6.96
2019-02-28T01:54:40.541Z,6.96
2019-02-28T01:55:40.895Z,6.98
2019-02-28T01:56:40.605Z,6.96
2019-02-28T01:57:44.524Z,6.94
2019-02-28T01:58:40.583Z,6.94
2019-02-28T01:59:41.073Z,6.94
2019-02-28T02:00:40.636Z,6.92
2019-02-28T02:01:41.790Z,6.91
2019-02-28T02:02:40.637Z,6.91
2019-02-28T02:03:41.926Z,6.88
2019-02-28T02:04:46.713Z,6.88
2019-02-28T02:05:40.746Z,6.87
2019-02-28T02:06:41.151Z,6.87
2019-02-28T02:07:40.602Z,6.85
2019-02-28T02:08:40.770Z,6.84
2019-02-28T02:09:46.994Z,6.83
2019-02-28T02:10:40.463Z,6.83
2019-02-28T02:11:40.602Z,6.81
2019-02-28T02:12:40.640Z,6.8
2019-02-28T02:13:41.120Z,6.78
2019-02-28T02:14:46.036Z,6.75
2019-02-28T02:15:40.580Z,6.77
2019-02-28T02:16:40.477Z,6.78
2019-02-28T02:17:42.549Z,6.77
2019-02-28T02:18:44.460Z,6.78
2019-02-28T02:19:40.491Z,6.8
2019-02-28T02:20:40.752Z,6.8
2019-02-28T02:21:40.653Z,6.75
2019-02-28T02:22:45.673Z,6.78
2019-02-28T02:23:40.468Z,6.77
2019-02-28T02:24:40.452Z,6.78
2019-02-28T02:25:40.885Z,6.78
2019-02-28T02:26:46.000Z,6.78
2019-02-28T02:27:41.467Z,6.75
2019-02-28T02:28:40.526Z,6.75
2019-02-28T02:29:40.536Z,6.75
2019-02-28T02:30:40.717Z,6.73
2019-02-28T02:31:43.931Z,6.73
2019-02-28T02:32:40.727Z,6.71
2019-02-28T02:33:40.680Z,6.7
2019-02-28T02:34:40.765Z,6.7
2019-02-28T02:35:43.713Z,6.67
2019-02-28T02:36:41.061Z,6.68
2019-02-28T02:37:40.553Z,6.61
2019-02-28T02:38:41.958Z,6.6
2019-02-28T02:39:42.325Z,6.56
2019-02-28T02:40:40.513Z,6.56
2019-02-28T02:41:40.788Z,6.53
2019-02-28T02:42:50.059Z,6.53
2019-02-28T02:43:41.012Z,6.48
2019-02-28T02:44:40.526Z,6.44
2019-02-28T02:45:44.030Z,6.39
2019-02-28T02:46:41.136Z,6.43
2019-02-28T02:47:40.531Z,6.41
2019-02-28T02:48:43.534Z,6.41
2019-02-28T02:49:41.114Z,6.41
2019-02-28T02:50:42.298Z,6.39
2019-02-28T02:51:50.807Z,6.39
2019-02-28T02:52:40.439Z,6.33
2019-02-28T02:53:43.529Z,6.39
2019-02-28T02:54:42.284Z,6.35
2019-02-28T02:55:41.074Z,6.35
2019-02-28T02:56:42.322Z,6.37
2019-02-28T02:57:40.686Z,6.36
2019-02-28T02:58:40.694Z,6.36
2019-02-28T02:59:40.549Z,6.36
2019-02-28T03:00:40.839Z,6.39
2019-02-28T03:01:40.447Z,6.36
2019-02-28T03:02:40.580Z,6.36
2019-02-28T03:03:44.769Z,6.36
2019-02-28T03:04:41.771Z,6.37
2019-02-28T03:05:40.553Z,6.36
2019-02-28T03:06:40.412Z,6.37
2019-02-28T03:07:40.754Z,6.37
2019-02-28T03:08:42.281Z,6.36
2019-02-28T03:09:44.917Z,6.36
2019-02-28T03:10:40.482Z,6.36
2019-02-28T03:11:40.587Z,6.35
2019-02-28T03:12:41.431Z,6.33
2019-02-28T03:13:44.418Z,6.3
2019-02-28T03:14:40.720Z,6.32
2019-02-28T03:15:40.611Z,6.32
2019-02-28T03:16:40.816Z,6.32
2019-02-28T03:17:49.091Z,6.33
2019-02-28T03:18:41.463Z,6.29
2019-02-28T03:19:41.151Z,6.28
2019-02-28T03:20:42.658Z,6.26
2019-02-28T03:21:42.238Z,6.28
2019-02-28T03:22:40.370Z,6.2
2019-02-28T03:23:40.818Z,6.19
2019-02-28T03:24:40.678Z,6.16
2019-02-28T03:25:40.577Z,6.13
2019-02-28T03:26:43.582Z,6.09
2019-02-28T03:27:41.377Z,6.11
2019-02-28T03:28:40.536Z,6.08
2019-02-28T03:29:45.013Z,6.06
2019-02-28T03:30:40.474Z,6.05
2019-02-28T03:31:40.395Z,5.97
2019-02-28T03:32:43.212Z,5.91
2019-02-28T03:33:40.805Z,5.9
2019-02-28T03:34:41.255Z,5.85
2019-02-28T03:35:44.486Z,5.88
2019-02-28T03:36:40.701Z,5.83
2019-02-28T03:37:40.444Z,5.81
2019-02-28T03:38:50.170Z,5.81
2019-02-28T03:39:40.645Z,5.75
2019-02-28T03:40:41.431Z,5.74
2019-02-28T03:41:40.386Z,5.71
2019-02-28T03:42:40.511Z,5.69
2019-02-28T03:43:44.271Z,5.7
2019-02-28T03:44:41.277Z,5.7
2019-02-28T03:45:40.400Z,5.67
2019-02-28T03:46:47.971Z,5.69
2019-02-28T03:47:40.428Z,5.69
2019-02-28T03:48:42.201Z,5.66
2019-02-28T03:49:40.478Z,5.64
2019-02-28T03:50:40.502Z,5.6
2019-02-28T03:51:40.464Z,5.6
2019-02-28T03:52:45.163Z,5.59
2019-02-28T03:53:40.485Z,5.56
2019-02-28T03:54:41.395Z,5.54
2019-02-28T03:55:41.786Z,5.56
2019-02-28T03:56:40.891Z,5.54
2019-02-28T03:57:42.255Z,5.51
2019-02-28T03:58:43.385Z,5.51
2019-02-28T03:59:40.763Z,5.49
2019-02-28T04:00:40.754Z,5.46
2019-02-28T04:01:46.631Z,5.47
2019-02-28T04:02:40.419Z,5.42
2019-02-28T04:03:40.938Z,5.4
2019-02-28T04:04:50.527Z,5.4
2019-02-28T04:05:40.636Z,5.4
2019-02-28T04:06:41.187Z,5.38
2019-02-28T04:07:40.385Z,5.25
2019-02-28T04:08:40.331Z,5.19
2019-02-28T04:09:45.437Z,5.21
2019-02-28T04:10:40.353Z,5.14
2019-02-28T04:11:41.009Z,5.1
2019-02-28T04:12:47.216Z,5.1
2019-02-28T04:13:40.401Z,5.11
2019-02-28T04:14:40.607Z,5.1
2019-02-28T04:16:09.327Z,5.07
2019-02-28T04:16:40.348Z,5.08
2019-02-28T04:17:40.399Z,5.07
2019-02-28T04:18:46.924Z,5.07
2019-02-28T04:19:41.033Z,5.08
2019-02-28T04:20:40.937Z,5.07
2019-02-28T04:21:47.953Z,5.08
2019-02-28T04:22:41.079Z,5.05
2019-02-28T04:23:40.326Z,5
2019-02-28T04:24:40.561Z,5
2019-02-28T04:25:40.601Z,4.97
2019-02-28T04:26:40.476Z,4.97
2019-02-28T04:27:42.249Z,4.95
2019-02-28T04:28:40.621Z,4.95
2019-02-28T04:29:40.413Z,4.93
2019-02-28T04:30:44.317Z,4.91
2019-02-28T04:31:40.330Z,4.88
2019-02-28T04:32:40.608Z,4.87
2019-02-28T04:33:40.508Z,4.86
2019-02-28T04:34:40.299Z,4.84
2019-02-28T04:35:40.332Z,4.81
2019-02-28T04:36:41.202Z,4.81
2019-02-28T04:37:47.379Z,4.8
2019-02-28T04:38:40.271Z,4.79
2019-02-28T04:39:41.165Z,4.77
2019-02-28T04:40:40.559Z,4.76
2019-02-28T04:41:40.346Z,4.73
2019-02-28T04:42:40.774Z,4.72
2019-02-28T04:43:45.068Z,4.73
2019-02-28T04:44:40.803Z,4.72
2019-02-28T04:45:40.382Z,4.76
2019-02-28T04:46:40.813Z,4.74
2019-02-28T04:47:42.002Z,4.72
2019-02-28T04:48:40.501Z,4.7
2019-02-28T04:49:40.623Z,4.66
2019-02-28T04:50:41.032Z,4.66
2019-02-28T04:51:41.305Z,4.65
2019-02-28T04:52:48.299Z,4.66
2019-02-28T04:53:40.245Z,4.62
2019-02-28T04:54:40.439Z,4.62
2019-02-28T04:55:42.114Z,4.62
2019-02-28T04:56:46.549Z,4.65
2019-02-28T04:57:40.244Z,4.62
2019-02-28T04:58:40.063Z,4.65
2019-02-28T04:59:40.471Z,4.63
2019-02-28T05:00:40.312Z,4.6
2019-02-28T05:01:40.353Z,4.6
2019-02-28T05:02:40.266Z,4.57
2019-02-28T05:03:41.130Z,4.6
2019-02-28T05:04:41.549Z,4.57
2019-02-28T05:05:40.512Z,4.56
2019-02-28T05:06:41.399Z,4.53
2019-02-28T05:07:40.842Z,4.56
2019-02-28T05:08:40.396Z,4.53
2019-02-28T05:09:40.425Z,4.55
2019-02-28T05:10:41.066Z,4.55
2019-02-28T05:11:40.359Z,4.52
2019-02-28T05:12:41.415Z,4.53
2019-02-28T05:13:41.343Z,4.53
2019-02-28T05:14:40.244Z,4.55
2019-02-28T05:15:41.255Z,4.53
2019-02-28T05:16:40.258Z,4.53
2019-02-28T05:17:40.287Z,4.52
2019-02-28T05:18:40.617Z,4.49
2019-02-28T05:19:40.520Z,4.48
2019-02-28T05:20:46.155Z,4.45
2019-02-28T05:21:40.250Z,4.42
2019-02-28T05:22:40.200Z,4.4
2019-02-28T05:23:42.050Z,4.38
2019-02-28T05:24:43.851Z,4.38
2019-02-28T05:25:41.079Z,4.35
2019-02-28T05:26:40.762Z,4.36
2019-02-28T05:27:41.805Z,4.35
2019-02-28T05:28:41.549Z,4.36
2019-02-28T05:29:45.011Z,4.33
2019-02-28T05:30:41.665Z,4.29
2019-02-28T05:31:40.263Z,4.28
2019-02-28T05:32:40.622Z,4.28
2019-02-28T05:33:43.003Z,4.26
2019-02-28T05:34:40.518Z,4.24
2019-02-28T05:35:40.509Z,4.24
2019-02-28T05:36:40.144Z,4.22
2019-02-28T05:37:40.218Z,4.24
2019-02-28T05:38:40.525Z,4.25
2019-02-28T05:39:40.329Z,4.25
2019-02-28T05:40:41.611Z,4.25
2019-02-28T05:41:40.326Z,4.29
2019-02-28T05:42:40.658Z,4.3
2019-02-28T05:43:40.333Z,4.28
2019-02-28T05:44:41.142Z,4.26
2019-02-28T05:45:40.373Z,4.28
2019-02-28T05:46:40.380Z,4.29
2019-02-28T05:47:47.583Z,4.29
2019-02-28T05:48:40.395Z,4.26
2019-02-28T05:49:42.140Z,4.24
2019-02-28T05:50:41.240Z,4.14
2019-02-28T05:51:40.284Z,4.18
2019-02-28T05:52:41.036Z,4.21
2019-02-28T05:53:42.816Z,4.22
2019-02-28T05:54:40.601Z,4.24
2019-02-28T05:55:40.231Z,4.24
2019-02-28T05:56:41.046Z,4.21
2019-02-28T05:57:45.007Z,4.14
2019-02-28T05:58:40.325Z,4.14
2019-02-28T05:59:40.580Z,4.21
2019-02-28T06:00:40.269Z,4.22
2019-02-28T06:01:47.718Z,4.22
2019-02-28T06:02:40.206Z,4.24
2019-02-28T06:03:40.491Z,4.19
2019-02-28T06:04:40.397Z,4.21
2019-02-28T06:05:40.127Z,4.24
2019-02-28T06:06:40.173Z,4.22
2019-02-28T06:07:40.420Z,4.25
2019-02-28T06:08:40.536Z,4.24
2019-02-28T06:09:40.302Z,4.22
2019-02-28T06:10:40.337Z,4.25
2019-02-28T06:11:40.766Z,4.25
2019-02-28T06:12:45.155Z,4.22
2019-02-28T06:13:40.235Z,4.21
2019-02-28T06:14:40.987Z,4.24
2019-02-28T06:15:40.221Z,4.24
2019-02-28T06:16:40.098Z,4.21
2019-02-28T06:17:40.253Z,4.21
2019-02-28T06:18:40.224Z,4.22
2019-02-28T06:19:44.420Z,4.22
2019-02-28T06:20:40.119Z,4.25
2019-02-28T06:21:40.106Z,4.24
2019-02-28T06:22:40.259Z,4.25
2019-02-28T06:23:41.785Z,4.28
2019-02-28T06:24:40.129Z,4.28
2019-02-28T06:25:40.124Z,4.29
2019-02-28T06:26:40.753Z,4.3
2019-02-28T06:27:50.538Z,4.33
2019-02-28T06:28:40.227Z,4.35
2019-02-28T06:29:40.597Z,4.33
2019-02-28T06:30:42.855Z,4.33
2019-02-28T06:31:40.126Z,4.35
2019-02-28T06:32:40.548Z,4.36
2019-02-28T06:33:40.391Z,4.35
2019-02-28T06:34:43.163Z,4.39
2019-02-28T06:35:40.200Z,4.4
2019-02-28T06:36:41.944Z,4.42
2019-02-28T06:37:40.428Z,4.43
2019-02-28T06:38:40.188Z,4.45
2019-02-28T06:39:40.319Z,4.46
2019-02-28T06:40:40.200Z,4.51
2019-02-28T06:41:41.000Z,4.52
2019-02-28T06:42:40.201Z,4.56
2019-02-28T06:43:40.226Z,4.57
2019-02-28T06:44:40.119Z,4.6
2019-02-28T06:45:40.068Z,4.65
2019-02-28T06:46:40.947Z,4.63
2019-02-28T06:47:40.268Z,4.66
2019-02-28T06:48:40.160Z,4.69
2019-02-28T06:49:42.195Z,4.69
2019-02-28T06:50:40.279Z,4.72
2019-02-28T06:51:41.928Z,4.73
2019-02-28T06:52:40.409Z,4.79
2019-02-28T06:53:40.061Z,4.77
2019-02-28T06:54:41.278Z,4.81
2019-02-28T06:55:40.183Z,4.86
2019-02-28T06:56:40.744Z,4.87
2019-02-28T06:57:40.339Z,4.87
2019-02-28T06:58:40.105Z,4.91
2019-02-28T06:59:39.879Z,4.91
2019-02-28T07:00:40.343Z,4.94
2019-02-28T07:01:40.090Z,4.98
2019-02-28T07:02:40.040Z,5
2019-02-28T07:03:42.692Z,5
2019-02-28T07:04:40.991Z,5.05
2019-02-28T07:05:40.174Z,5.04
2019-02-28T07:06:40.050Z,5.07
2019-02-28T07:07:40.211Z,5.07
2019-02-28T07:08:40.051Z,5.08
2019-02-28T07:09:40.090Z,5.11
2019-02-28T07:10:41.655Z,5.12
2019-02-28T07:11:40.534Z,5.14
2019-02-28T07:12:40.233Z,5.15
2019-02-28T07:13:41.288Z,5.16
2019-02-28T07:14:40.079Z,5.15
2019-02-28T07:15:40.130Z,5.21
2019-02-28T07:16:40.866Z,5.22
2019-02-28T07:17:47.593Z,5.23
2019-02-28T07:18:40.379Z,5.25
2019-02-28T07:19:40.922Z,5.26
2019-02-28T07:20:40.436Z,5.26
2019-02-28T07:21:44.528Z,5.3
2019-02-28T07:22:41.921Z,5.33
2019-02-28T07:23:40.034Z,5.36
2019-02-28T07:24:41.914Z,5.4
2019-02-28T07:25:40.424Z,5.42
2019-02-28T07:26:40.533Z,5.43
2019-02-28T07:27:40.019Z,5.39
2019-02-28T07:28:40.264Z,5.43
2019-02-28T07:29:43.661Z,5.45
2019-02-28T07:30:40.051Z,5.45
2019-02-28T07:31:40.164Z,5.45
2019-02-28T07:32:40.485Z,5.49
2019-02-28T07:33:45.337Z,5.47
2019-02-28T07:34:40.107Z,5.46
2019-02-28T07:35:40.226Z,5.47
2019-02-28T07:36:45.987Z,5.47
2019-02-28T07:37:40.170Z,5.49
2019-02-28T07:38:40.176Z,5.51
2019-02-28T07:39:41.257Z,5.53
2019-02-28T07:40:40.347Z,5.53
2019-02-28T07:41:41.566Z,5.57
2019-02-28T07:42:40.161Z,5.6
2019-02-28T07:43:40.242Z,5.63
2019-02-28T07:44:40.372Z,5.67
2019-02-28T07:45:40.132Z,5.64
2019-02-28T07:46:43.471Z,5.7
2019-02-28T07:47:41.838Z,5.74
2019-02-28T07:48:40.131Z,5.8
2019-02-28T07:49:40.183Z,5.81
2019-02-28T07:50:40.025Z,5.87
2019-02-28T07:51:41.845Z,5.94
2019-02-28T07:52:40.048Z,5.95
2019-02-28T07:53:42.197Z,5.97
2019-02-28T07:54:40.318Z,6.02
2019-02-28T07:55:40.166Z,6.11
2019-02-28T07:56:44.452Z,6.13
2019-02-28T07:57:40.847Z,6.25
2019-02-28T07:58:40.194Z,6.3
2019-02-28T07:59:42.847Z,6.4
2019-02-28T08:00:40.454Z,6.46
2019-02-28T08:01:41.161Z,6.47
2019-02-28T08:02:40.122Z,6.58
2019-02-28T08:03:45.023Z,6.64
2019-02-28T08:04:40.685Z,6.68
2019-02-28T08:05:40.252Z,6.74
2019-02-28T08:06:40.754Z,6.88
2019-02-28T08:07:40.176Z,6.87
2019-02-28T08:08:40.079Z,6.92
2019-02-28T08:09:41.667Z,7.01
2019-02-28T08:10:40.036Z,7.12
2019-02-28T08:11:40.086Z,7.2
2019-02-28T08:12:40.098Z,7.3
2019-02-28T08:13:40.208Z,7.36
2019-02-28T08:14:47.886Z,7.43
2019-02-28T08:15:40.779Z,7.46
2019-02-28T08:16:40.069Z,7.48
2019-02-28T08:17:44.763Z,7.58
2019-02-28T08:18:40.302Z,7.68
2019-02-28T08:19:39.935Z,7.68
2019-02-28T08:20:40.043Z,7.68
2019-02-28T08:21:50.578Z,7.68
2019-02-28T08:22:40.047Z,7.75
2019-02-28T08:23:40.236Z,7.75
2019-02-28T08:24:40.011Z,7.81
2019-02-28T08:25:43.624Z,7.89
2019-02-28T08:26:43.862Z,8.01
2019-02-28T08:27:40.001Z,8.02
2019-02-28T08:28:40.029Z,7.99
2019-02-28T08:29:46.090Z,8.03
2019-02-28T08:30:40.000Z,8.08
2019-02-28T08:31:40.368Z,8.1
2019-02-28T08:32:47.349Z,8.14
2019-02-28T08:33:39.931Z,8.23
2019-02-28T08:34:40.138Z,8.24
2019-02-28T08:35:39.950Z,8.34
2019-02-28T08:36:43.740Z,8.34
2019-02-28T08:37:40.222Z,8.45
2019-02-28T08:38:40.049Z,8.48
2019-02-28T08:39:42.287Z,8.54
2019-02-28T08:40:41.148Z,8.62
2019-02-28T08:41:39.756Z,8.66
2019-02-28T08:42:39.924Z,8.72
2019-02-28T08:43:39.740Z,8.75
2019-02-28T08:44:39.730Z,8.82
2019-02-28T08:45:39.944Z,8.96
2019-02-28T08:46:39.735Z,9.06
2019-02-28T08:47:39.739Z,9.13
2019-02-28T08:48:39.736Z,9.19
2019-02-28T08:49:45.654Z,9.2
2019-02-28T08:50:39.755Z,9.23
2019-02-28T08:51:39.728Z,9.27
2019-02-28T08:52:42.371Z,9.45
2019-02-28T08:53:39.755Z,9.44
2019-02-28T08:54:39.713Z,9.51
2019-02-28T08:55:44.530Z,9.54
2019-02-28T08:56:39.703Z,9.65
2019-02-28T08:57:39.718Z,9.61
2019-02-28T08:58:39.717Z,9.66
2019-02-28T08:59:39.742Z,9.73
2019-02-28T09:00:39.783Z,9.82
2019-02-28T09:01:44.378Z,9.85
2019-02-28T09:02:39.721Z,9.94
2019-02-28T09:03:40.728Z,9.96
2019-02-28T09:04:47.509Z,10.06
2019-02-28T09:05:39.699Z,10.17
2019-02-28T09:06:41.849Z,10.23
2019-02-28T09:07:39.729Z,10.27
2019-02-28T09:08:39.687Z,10.34
2019-02-28T09:09:39.698Z,10.34
2019-02-28T09:10:39.725Z,10.38
2019-02-28T09:11:39.731Z,10.45
2019-02-28T09:12:39.700Z,10.49
2019-02-28T09:13:43.744Z,10.52
2019-02-28T09:14:39.709Z,10.55
2019-02-28T09:15:39.685Z,10.65
2019-02-28T09:16:40.406Z,10.8
2019-02-28T09:17:39.703Z,10.79
2019-02-28T09:18:39.701Z,10.82
2019-02-28T09:19:39.681Z,10.87
2019-02-28T09:20:45.327Z,11.03
2019-02-28T09:21:41.391Z,11.06
2019-02-28T09:22:39.826Z,11.21
2019-02-28T09:23:39.875Z,11.21
2019-02-28T09:24:39.848Z,11.28
2019-02-28T09:25:39.933Z,11.28
2019-02-28T09:26:39.831Z,11.41
2019-02-28T09:27:39.874Z,11.51
2019-02-28T09:28:39.826Z,11.54
2019-02-28T09:29:39.815Z,11.56
2019-02-28T09:30:39.830Z,11.62
2019-02-28T09:31:39.925Z,11.68
2019-02-28T09:32:39.824Z,11.72
2019-02-28T09:33:39.799Z,11.75
2019-02-28T09:34:41.417Z,11.73
2019-02-28T09:35:46.630Z,11.82
2019-02-28T09:36:39.818Z,11.86
2019-02-28T09:37:39.842Z,11.87
2019-02-28T09:38:45.988Z,12.01
2019-02-28T09:39:40.124Z,12.01
2019-02-28T09:40:41.452Z,12.05
2019-02-28T09:41:41.403Z,12.07
2019-02-28T09:42:39.815Z,12.08
2019-02-28T09:43:39.818Z,12.2
2019-02-28T09:44:39.901Z,12.23
2019-02-28T09:45:56.393Z,12.35
2019-02-28T09:46:39.816Z,12.41
2019-02-28T09:47:39.798Z,12.41
2019-02-28T09:48:54.543Z,12.45
2019-02-28T09:49:39.885Z,12.49
2019-02-28T09:50:39.868Z,12.59
2019-02-28T09:51:39.821Z,12.55
2019-02-28T09:52:42.773Z,12.53
2019-02-28T09:53:51.998Z,12.51
2019-02-28T09:54:39.814Z,12.52
2019-02-28T09:55:40.016Z,12.55
2019-02-28T09:56:45.436Z,12.69
2019-02-28T09:57:39.783Z,12.67
2019-02-28T09:58:39.769Z,12.77
2019-02-28T09:59:40.303Z,12.83
2019-02-28T10:00:39.853Z,12.83
2019-02-28T10:01:39.773Z,12.87
2019-02-28T10:02:45.187Z,12.84
2019-02-28T10:03:39.794Z,12.84
2019-02-28T10:04:39.774Z,12.86
2019-02-28T10:05:43.472Z,12.9
2019-02-28T10:06:39.894Z,12.93
2019-02-28T10:07:39.798Z,12.9
2019-02-28T10:08:39.805Z,12.96
2019-02-28T10:09:46.983Z,12.96
2019-02-28T10:10:39.804Z,13.01
2019-02-28T10:11:40.719Z,13.04
2019-02-28T10:12:43.283Z,13.06
2019-02-28T10:13:39.762Z,13.11
2019-02-28T10:14:39.920Z,13.13
2019-02-28T10:15:42.542Z,13.14
2019-02-28T10:16:53.321Z,13.21
2019-02-28T10:17:39.828Z,13.29
2019-02-28T10:18:40.992Z,13.31
2019-02-28T10:19:49.136Z,13.35
2019-02-28T10:20:39.784Z,13.34
2019-02-28T10:21:39.795Z,13.39
2019-02-28T10:22:39.811Z,13.45
2019-02-28T10:23:39.782Z,13.41
2019-02-28T10:24:40.313Z,13.46
2019-02-28T10:25:43.852Z,13.46
2019-02-28T10:26:39.779Z,13.53
2019-02-28T10:27:39.940Z,13.56
2019-02-28T10:28:39.761Z,13.64
2019-02-28T10:29:42.818Z,13.66
2019-02-28T10:30:39.751Z,13.7
2019-02-28T10:31:39.740Z,13.77
2019-02-28T10:33:39.749Z,13.86
2019-02-28T10:34:39.766Z,13.94
2019-02-28T10:35:39.739Z,14.02
2019-02-28T10:36:39.757Z,14.08
2019-02-28T10:38:39.662Z,14.21
2019-02-28T10:39:43.904Z,14.32
2019-02-28T10:40:40.089Z,14.31
2019-02-28T10:41:39.727Z,14.36
2019-02-28T10:42:41.528Z,14.42
2019-02-28T10:43:39.777Z,14.45
2019-02-28T10:44:39.733Z,14.59
2019-02-28T10:45:42.937Z,14.62
2019-02-28T10:46:39.563Z,14.69
2019-02-28T10:47:39.717Z,14.72
2019-02-28T10:48:51.227Z,14.69
2019-02-28T10:49:39.812Z,14.79
2019-02-28T10:50:39.731Z,14.8
2019-02-28T10:51:39.729Z,14.84
2019-02-28T10:52:39.798Z,14.81
2019-02-28T10:53:40.346Z,14.84
2019-02-28T10:54:39.732Z,14.9
2019-02-28T10:55:39.695Z,14.98
2019-02-28T10:56:39.874Z,15.04
2019-02-28T10:57:41.724Z,15.12
2019-02-28T10:58:39.717Z,15.12
2019-02-28T10:59:39.849Z,15.17
2019-02-28T11:00:39.747Z,15.25
2019-02-28T11:01:42.774Z,15.19
2019-02-28T11:02:39.885Z,15.18
2019-02-28T11:03:39.699Z,15.17
2019-02-28T11:04:44.162Z,15.21
2019-02-28T11:05:39.884Z,15.18
2019-02-28T11:06:39.703Z,15.21
2019-02-28T11:07:39.717Z,15.17
2019-02-28T11:08:40.288Z,15.19
2019-02-28T11:09:39.902Z,15.23
2019-02-28T11:10:39.701Z,15.22
2019-02-28T11:11:46.263Z,15.21
2019-02-28T11:12:39.689Z,15.23
2019-02-28T11:13:39.714Z,15.23
2019-02-28T11:14:39.974Z,15.26
2019-02-28T11:15:39.745Z,15.25
2019-02-28T11:16:39.677Z,15.22
2019-02-28T11:17:39.665Z,15.32
2019-02-28T11:18:42.942Z,15.42
2019-02-28T11:19:39.675Z,15.53
2019-02-28T11:20:39.686Z,15.56
2019-02-28T11:21:39.889Z,15.5
2019-02-28T11:22:41.082Z,15.59
2019-02-28T11:23:39.685Z,15.59
2019-02-28T11:24:39.674Z,15.64
2019-02-28T11:25:39.693Z,15.7
2019-02-28T11:26:45.758Z,15.64
2019-02-28T11:27:40.004Z,15.66
2019-02-28T11:28:39.698Z,15.66
2019-02-28T11:29:39.682Z,15.63
2019-02-28T11:30:45.678Z,15.6
2019-02-28T11:31:39.678Z,15.56
2019-02-28T11:32:39.668Z,15.53
2019-02-28T11:33:40.609Z,15.46
2019-02-28T11:34:39.652Z,15.45
2019-02-28T11:35:39.655Z,15.46
2019-02-28T11:36:39.652Z,15.46
2019-02-28T11:37:46.201Z,15.43
2019-02-28T11:38:39.703Z,15.47
2019-02-28T11:39:39.653Z,15.47
2019-02-28T11:40:44.546Z,15.54
2019-02-28T11:41:44.471Z,15.6
2019-02-28T11:42:39.674Z,15.62
2019-02-28T11:43:40.218Z,15.59
2019-02-28T11:44:39.640Z,15.6
2019-02-28T11:45:39.715Z,15.64
2019-02-28T11:46:39.650Z,15.66
2019-02-28T11:47:43.493Z,15.66
2019-02-28T11:48:39.629Z,15.78
2019-02-28T11:49:39.648Z,15.82
2019-02-28T11:50:45.202Z,15.87
2019-02-28T11:51:39.694Z,15.95
2019-02-28T11:52:39.628Z,15.88
2019-02-28T11:54:39.628Z,15.88
2019-02-28T11:55:39.656Z,15.9
2019-02-28T11:56:39.658Z,15.88
2019-02-28T11:57:42.197Z,15.87
2019-02-28T11:58:39.672Z,15.87
2019-02-28T11:59:39.741Z,15.87
2019-02-28T12:00:39.691Z,15.9
2019-02-28T12:01:48.464Z,15.85
2019-02-28T12:03:01.156Z,15.91
2019-02-28T12:03:39.783Z,16.01
2019-02-28T12:04:41.317Z,15.99
2019-02-28T12:05:39.604Z,16.05
2019-02-28T12:06:39.686Z,16.07
2019-02-28T12:07:39.619Z,16.15
2019-02-28T12:08:45.713Z,16.18
2019-02-28T12:09:39.650Z,16.19
2019-02-28T12:10:39.672Z,16.29
2019-02-28T12:11:39.640Z,16.32
2019-02-28T12:12:45.477Z,16.45
2019-02-28T12:13:39.600Z,16.47
2019-02-28T12:14:39.620Z,16.49
2019-02-28T12:15:39.942Z,16.53
2019-02-28T12:16:45.866Z,16.6
2019-02-28T12:17:39.651Z,16.62
2019-02-28T12:18:41.133Z,16.66
2019-02-28T12:19:39.601Z,16.75
2019-02-28T12:20:39.624Z,16.77
2019-02-28T12:21:49.786Z,16.81
2019-02-28T12:22:39.583Z,16.78
2019-02-28T12:23:39.605Z,16.81
2019-02-28T12:24:39.578Z,16.78
2019-02-28T12:25:43.697Z,16.81
2019-02-28T12:26:39.634Z,16.86
2019-02-28T12:27:39.629Z,16.86
2019-02-28T12:28:39.628Z,16.87
2019-02-28T12:29:39.591Z,16.87
2019-02-28T12:30:40.478Z,16.92
2019-02-28T12:31:39.582Z,17.01
2019-02-28T12:32:44.254Z,17.01
2019-02-28T12:33:39.613Z,17.01
2019-02-28T12:34:39.601Z,17.09
2019-02-28T12:35:40.833Z,17.09
2019-02-28T12:36:39.614Z,17.15
2019-02-28T12:37:39.565Z,17.22
2019-02-28T12:38:39.610Z,17.27
2019-02-28T12:39:39.574Z,17.32
2019-02-28T12:40:47.242Z,17.36
2019-02-28T12:41:40.295Z,17.39
2019-02-28T12:42:39.586Z,17.33
2019-02-28T12:43:41.675Z,17.37
2019-02-28T12:44:39.601Z,17.42
2019-02-28T12:45:39.598Z,17.46
2019-02-28T12:46:39.567Z,17.52
2019-02-28T12:47:42.414Z,17.58
2019-02-28T12:48:39.559Z,17.64
2019-02-28T12:49:39.594Z,17.63
2019-02-28T12:50:39.622Z,17.63
2019-02-28T12:51:40.337Z,17.63
2019-02-28T12:52:39.553Z,17.71
2019-02-28T12:53:39.564Z,17.73
2019-02-28T12:54:39.585Z,17.7
2019-02-28T12:55:40.259Z,17.71
2019-02-28T12:56:39.586Z,17.69
2019-02-28T12:57:39.641Z,17.76
2019-02-28T12:58:41.842Z,17.85
2019-02-28T12:59:47.038Z,17.88
2019-02-28T13:00:39.572Z,17.89
2019-02-28T13:01:39.553Z,17.92
2019-02-28T13:02:44.562Z,17.91
2019-02-28T13:03:39.554Z,17.98
2019-02-28T13:04:39.547Z,18.01
2019-02-28T13:05:39.568Z,18.04
2019-02-28T13:06:39.532Z,17.99
2019-02-28T13:07:39.559Z,18.05
2019-02-28T13:08:42.565Z,18.08
2019-02-28T13:09:39.542Z,18.13
2019-02-28T13:10:39.538Z,18.15
2019-02-28T13:11:39.537Z,18.13
2019-02-28T13:12:39.557Z,18.17
2019-02-28T13:13:39.541Z,18.19
2019-02-28T13:14:41.996Z,18.23
2019-02-28T13:15:39.504Z,18.27